createdAt,value
2022-08-12T00:01:02.080Z,3.88
2022-08-12T00:03:47.332Z,4.03
2022-08-12T00:06:33.684Z,4.13
2022-08-12T00:09:25.763Z,4.10
2022-08-12T00:12:12.752Z,3.47
2022-08-12T00:14:59.329Z,4.03
2022-08-12T00:17:45.555Z,3.33
2022-08-12T00:20:31.141Z,3.22
2022-08-12T00:23:17.276Z,3.30
2022-08-12T00:26:23.747Z,3.33
2022-08-12T00:29:13.804Z,2.60
2022-08-12T00:32:00.970Z,3.15
2022-08-12T00:34:49.337Z,3.20
2022-08-12T00:37:36.548Z,2.92
2022-08-12T00:40:28.047Z,3.30
2022-08-12T00:42:56.955Z,3.55
2022-08-12T00:45:24.551Z,3.22
2022-08-12T00:47:53.505Z,3.85
2022-08-12T00:50:22.803Z,3.92
2022-08-12T00:52:52.532Z,3.53
2022-08-12T00:55:20.487Z,3.30
2022-08-12T00:57:50.025Z,3.85
2022-08-12T01:00:22.860Z,2.90
2022-08-12T01:02:53.517Z,3.60
2022-08-12T01:05:42.044Z,3.15
2022-08-12T01:08:27.745Z,3.88
2022-08-12T01:11:15.115Z,3.70
2022-08-12T01:13:47.262Z,3.42
2022-08-12T01:16:18.044Z,3.53
2022-08-12T01:18:45.413Z,2.97
2022-08-12T01:21:26.611Z,3.30
2022-08-12T01:24:30.854Z,3.70
2022-08-12T01:29:32.923Z,3.65
2022-08-12T01:32:05.833Z,3.30
2022-08-12T01:34:38.791Z,3.30
2022-08-12T01:37:10.122Z,3.60
2022-08-12T01:40:33.689Z,3.70
2022-08-12T01:42:48.795Z,4.53
2022-08-12T01:45:17.715Z,3.97
2022-08-12T01:48:05.422Z,3.70
2022-08-12T01:50:47.471Z,4.20
2022-08-12T01:53:18.293Z,4.22
2022-08-12T01:55:47.793Z,3.65
2022-08-12T01:58:55.536Z,4.10
2022-08-12T02:01:27.912Z,3.70
2022-08-12T02:04:33.227Z,3.67
2022-08-12T02:07:18.509Z,3.95
2022-08-12T02:10:50.923Z,4.72
2022-08-12T02:13:42.076Z,4.30
2022-08-12T02:16:23.828Z,4.40
2022-08-12T02:19:22.783Z,4.43
2022-08-12T02:22:04.832Z,4.30
2022-08-12T02:24:37.709Z,4.10
2022-08-12T02:27:08.378Z,4.10
2022-08-12T02:29:40.413Z,4.00
2022-08-12T02:32:08.447Z,4.10
2022-08-12T02:34:35.832Z,4.75
2022-08-12T02:37:05.031Z,4.40
2022-08-12T02:39:35.556Z,4.60
2022-08-12T02:42:06.797Z,4.63
2022-08-12T02:44:40.390Z,4.93
2022-08-12T02:47:59.055Z,5.13
2022-08-12T02:49:58.457Z,5.45
2022-08-12T02:52:27.646Z,5.13
2022-08-12T02:55:13.385Z,5.15
2022-08-12T02:57:57.468Z,5.78
2022-08-12T03:00:26.314Z,5.70
2022-08-12T03:02:57.196Z,6.30
2022-08-12T03:05:26.336Z,7.07
2022-08-12T03:07:59.950Z,5.22
2022-08-12T03:10:37.000Z,6.10
2022-08-12T03:13:07.510Z,4.78
2022-08-12T03:15:35.790Z,5.30
2022-08-12T03:18:25.675Z,5.32
2022-08-12T03:20:54.765Z,5.00
2022-08-12T03:23:30.222Z,5.18
2022-08-12T03:26:01.788Z,4.85
2022-08-12T03:28:50.485Z,5.15
2022-08-12T03:31:35.471Z,4.95
2022-08-12T03:34:09.850Z,6.63
2022-08-12T03:36:38.785Z,6.32
2022-08-12T03:39:18.262Z,6.38
2022-08-12T03:41:54.951Z,7.10
2022-08-12T03:45:00.825Z,6.57
2022-08-12T03:48:13.405Z,6.28
2022-08-12T03:51:05.641Z,5.88
2022-08-12T03:53:52.190Z,5.30
2022-08-12T03:56:38.008Z,5.05
2022-08-12T03:59:24.914Z,4.88
2022-08-12T04:01:57.808Z,5.30
2022-08-12T04:04:34.848Z,6.03
2022-08-12T04:07:04.613Z,4.15
2022-08-12T04:09:31.916Z,5.60
2022-08-12T04:12:17.272Z,4.75
2022-08-12T04:14:44.249Z,4.82
2022-08-12T04:17:12.416Z,5.43
2022-08-12T04:19:40.100Z,5.00
2022-08-12T04:22:06.963Z,5.10
2022-08-12T04:24:36.042Z,4.95
2022-08-12T04:27:10.290Z,5.20
2022-08-12T04:30:30.290Z,5.10
2022-08-12T04:32:26.430Z,4.70
2022-08-12T04:34:59.129Z,4.47
2022-08-12T04:37:27.568Z,4.72
2022-08-12T04:39:55.193Z,4.50
2022-08-12T04:42:23.936Z,5.65
2022-08-12T04:44:50.670Z,5.13
2022-08-12T04:47:19.271Z,4.80
2022-08-12T04:49:48.362Z,4.10
2022-08-12T04:52:16.023Z,4.43
2022-08-12T04:54:44.132Z,4.95
2022-08-12T04:57:11.344Z,4.53
2022-08-12T04:59:47.888Z,4.65
2022-08-12T05:02:21.795Z,4.15
2022-08-12T05:04:51.730Z,5.45
2022-08-12T05:07:20.291Z,4.55
2022-08-12T05:10:00.362Z,4.10
2022-08-12T05:12:36.683Z,5.18
2022-08-12T05:15:16.795Z,5.05
2022-08-12T05:17:52.520Z,4.60
2022-08-12T05:20:21.266Z,5.05
2022-08-12T05:22:50.091Z,4.72
2022-08-12T05:25:24.020Z,4.30
2022-08-12T05:27:58.566Z,4.72
2022-08-12T05:30:33.551Z,4.88
2022-08-12T05:33:05.319Z,4.78
2022-08-12T05:35:43.191Z,4.97
2022-08-12T05:38:33.887Z,5.30
2022-08-12T05:41:01.977Z,5.72
2022-08-12T05:43:29.114Z,7.72
2022-08-12T05:45:56.740Z,6.60
2022-08-12T05:48:24.631Z,5.50
2022-08-12T05:50:52.993Z,6.93
2022-08-12T05:53:19.926Z,8.15
2022-08-12T05:55:46.768Z,6.80
2022-08-12T05:58:13.733Z,7.10
2022-08-12T06:00:42.558Z,8.32
2022-08-12T06:03:09.511Z,6.25
2022-08-12T06:05:54.409Z,6.72
2022-08-12T06:08:24.138Z,7.32
2022-08-12T06:10:51.438Z,6.40
2022-08-12T06:13:28.355Z,7.45
2022-08-12T06:16:07.386Z,8.30
2022-08-12T06:18:34.408Z,7.82
2022-08-12T06:21:01.894Z,8.50
2022-08-12T06:23:29.944Z,9.25
2022-08-12T06:25:57.702Z,9.15
2022-08-12T06:28:25.291Z,8.88
2022-08-12T06:31:15.254Z,8.65
2022-08-12T06:33:59.593Z,9.10
2022-08-12T06:36:29.502Z,7.85
2022-08-12T06:38:59.556Z,8.70
2022-08-12T06:42:10.692Z,8.27
2022-08-12T06:44:32.273Z,8.50
2022-08-12T06:46:59.082Z,7.60
2022-08-12T06:49:26.020Z,7.72
2022-08-12T06:51:56.828Z,8.25
2022-08-12T06:54:30.872Z,7.72
2022-08-12T06:57:04.356Z,9.27
2022-08-12T06:59:32.584Z,7.53
2022-08-12T07:01:59.616Z,6.75
2022-08-12T07:04:36.215Z,5.65
2022-08-12T07:07:05.491Z,4.90
2022-08-12T07:10:01.421Z,5.30
2022-08-12T07:12:20.062Z,5.35
2022-08-12T07:14:50.559Z,5.38
2022-08-12T07:17:17.679Z,5.55
2022-08-12T07:19:46.790Z,6.13
2022-08-12T07:22:16.134Z,5.68
2022-08-12T07:24:43.080Z,6.15
2022-08-12T07:27:09.956Z,5.80
2022-08-12T07:30:03.480Z,5.43
2022-08-12T07:32:25.635Z,5.95
2022-08-12T07:34:56.901Z,5.32
2022-08-12T07:37:23.796Z,6.03
2022-08-12T07:39:59.350Z,5.53
2022-08-12T07:42:28.837Z,5.40
2022-08-12T07:44:56.839Z,5.30
2022-08-12T07:47:27.052Z,6.00
2022-08-12T07:50:05.873Z,5.78
2022-08-12T07:52:38.693Z,4.95
2022-08-12T07:55:06.963Z,5.00
2022-08-12T07:57:35.301Z,5.35
2022-08-12T08:00:05.951Z,4.88
2022-08-12T08:02:37.650Z,5.45
2022-08-12T08:05:05.252Z,5.25
2022-08-12T08:07:32.193Z,5.05
2022-08-12T08:10:00.549Z,5.13
2022-08-12T08:12:47.510Z,5.38
2022-08-12T08:15:15.978Z,4.63
2022-08-12T08:18:03.462Z,5.55
2022-08-12T08:20:37.956Z,4.55
2022-08-12T08:23:08.126Z,3.75
2022-08-12T08:25:38.748Z,2.80
2022-08-12T08:28:18.903Z,2.38
2022-08-12T08:30:50.560Z,2.97
2022-08-12T08:34:01.251Z,3.42
2022-08-12T08:36:07.687Z,3.00
2022-08-12T08:38:57.517Z,2.70
2022-08-12T08:42:15.752Z,3.33
2022-08-12T08:44:39.476Z,2.47
2022-08-12T08:47:07.845Z,2.83
2022-08-12T08:49:37.203Z,2.95
2022-08-12T08:52:10.866Z,2.80
2022-08-12T08:54:38.250Z,2.38
2022-08-12T08:57:08.292Z,2.25
2022-08-12T08:59:35.471Z,2.50
2022-08-12T09:02:02.675Z,2.33
2022-08-12T09:05:12.752Z,2.80
2022-08-12T09:07:51.287Z,2.33
2022-08-12T09:10:15.575Z,2.13
2022-08-12T09:13:23.468Z,2.00
2022-08-12T09:15:57.661Z,2.50
2022-08-12T09:18:33.146Z,2.88
2022-08-12T09:23:58.559Z,2.40
2022-08-12T09:26:33.751Z,2.30
2022-08-12T09:29:12.232Z,2.90
2022-08-12T09:32:07.973Z,2.20
2022-08-12T09:34:34.196Z,1.98
2022-08-12T09:37:19.282Z,3.15
2022-08-12T09:40:01.892Z,2.42
2022-08-12T09:43:15.244Z,2.00
2022-08-12T09:46:11.390Z,2.38
2022-08-12T09:48:36.731Z,2.03
2022-08-12T09:51:10.841Z,2.20
2022-08-12T09:53:45.725Z,2.40
2022-08-12T09:56:58.096Z,2.25
2022-08-12T10:00:13.133Z,2.10
2022-08-12T10:02:44.048Z,2.05
2022-08-12T10:04:59.607Z,2.25
2022-08-12T10:07:29.153Z,2.33
2022-08-12T10:10:08.125Z,1.98
2022-08-12T10:13:35.260Z,2.35
2022-08-12T10:16:07.649Z,2.83
2022-08-12T10:18:52.265Z,2.33
2022-08-12T10:21:37.557Z,2.80
2022-08-12T10:24:05.999Z,2.67
2022-08-12T10:26:52.890Z,2.85
2022-08-12T10:30:03.910Z,3.50
2022-08-12T10:32:44.038Z,2.72
2022-08-12T10:35:14.237Z,2.67
2022-08-12T10:38:32.279Z,3.08
2022-08-12T10:40:33.009Z,3.28
2022-08-12T10:43:20.620Z,2.55
2022-08-12T10:45:51.897Z,2.65
2022-08-12T10:48:34.318Z,2.60
2022-08-12T10:52:02.567Z,2.47
2022-08-12T10:53:52.530Z,2.10
2022-08-12T10:56:19.595Z,2.53
2022-08-12T10:58:49.279Z,2.70
2022-08-12T11:01:50.117Z,2.85
2022-08-12T11:04:31.875Z,2.53
2022-08-12T11:07:09.189Z,2.92
2022-08-12T11:10:01.272Z,2.95
2022-08-12T11:12:56.115Z,3.08
2022-08-12T11:15:20.917Z,3.03
2022-08-12T11:17:53.512Z,2.67
2022-08-12T11:23:03.994Z,3.08
2022-08-12T11:25:55.971Z,3.33
2022-08-12T11:28:34.213Z,3.10
2022-08-12T11:31:05.559Z,2.85
2022-08-12T11:34:05.190Z,2.90
2022-08-12T11:36:21.959Z,2.83
2022-08-12T11:38:50.692Z,2.65
2022-08-12T11:41:28.031Z,3.13
2022-08-12T11:44:35.558Z,2.70
2022-08-12T11:46:53.084Z,3.03
2022-08-12T11:49:31.553Z,2.70
2022-08-12T11:52:02.307Z,2.97
2022-08-12T11:54:30.381Z,3.13
2022-08-12T11:57:00.487Z,3.25
2022-08-12T12:02:20.665Z,2.80
2022-08-12T12:04:52.674Z,2.95
2022-08-12T12:07:22.649Z,2.92
2022-08-12T12:10:03.763Z,2.63
2022-08-12T12:12:31.239Z,2.90
2022-08-12T12:15:02.812Z,3.53
2022-08-12T12:17:38.448Z,2.53
2022-08-12T12:20:11.411Z,3.13
2022-08-12T12:22:41.675Z,3.22
2022-08-12T12:28:04.757Z,3.00
2022-08-12T12:30:33.290Z,2.88
2022-08-12T12:33:00.088Z,3.20
2022-08-12T12:36:18.754Z,3.20
2022-08-12T12:38:15.468Z,3.00
2022-08-12T12:40:44.482Z,3.05
2022-08-12T12:43:13.980Z,2.85
2022-08-12T12:45:45.843Z,2.90
2022-08-12T12:48:18.236Z,2.83
2022-08-12T12:50:51.639Z,2.42
2022-08-12T12:56:15.724Z,2.80
2022-08-12T12:58:43.826Z,2.63
2022-08-12T13:01:25.338Z,2.95
2022-08-12T13:04:02.674Z,3.00
2022-08-12T13:06:31.718Z,2.50
2022-08-12T13:09:02.515Z,2.65
2022-08-12T13:11:39.244Z,2.35
2022-08-12T13:14:12.965Z,3.05
2022-08-12T13:16:56.603Z,2.53
2022-08-12T13:19:25.109Z,2.83
2022-08-12T13:22:19.038Z,2.80
2022-08-12T13:24:56.564Z,3.03
2022-08-12T13:27:35.005Z,2.67
2022-08-12T13:30:10.928Z,2.75
2022-08-12T13:32:57.129Z,3.15
2022-08-12T13:36:03.052Z,2.95
2022-08-12T13:38:34.046Z,3.42
2022-08-12T13:41:03.150Z,3.30
2022-08-12T13:43:40.232Z,3.30
2022-08-12T13:46:12.229Z,3.00
2022-08-12T13:48:44.963Z,2.95
2022-08-12T13:51:13.079Z,4.18
2022-08-12T13:53:55.248Z,5.45
2022-08-12T13:56:34.459Z,4.50
2022-08-12T13:59:07.996Z,3.88
2022-08-12T14:01:40.768Z,3.95
2022-08-12T14:04:11.576Z,4.15
2022-08-12T14:06:43.464Z,4.60
2022-08-12T14:09:17.830Z,4.28
2022-08-12T14:11:51.181Z,4.20
2022-08-12T14:14:31.071Z,4.53
2022-08-12T14:17:02.403Z,4.47
2022-08-12T14:19:37.675Z,3.88
2022-08-12T14:22:05.730Z,4.72
2022-08-12T14:24:40.093Z,4.28
2022-08-12T14:27:12.123Z,4.50
2022-08-12T14:30:04.380Z,4.18
2022-08-12T14:32:37.154Z,4.68
2022-08-12T14:35:09.055Z,4.78
2022-08-12T14:37:57.436Z,4.10
2022-08-12T14:40:29.995Z,3.83
2022-08-12T14:42:58.412Z,3.92
2022-08-12T14:45:45.114Z,4.00
2022-08-12T14:48:15.189Z,3.80
2022-08-12T14:51:02.667Z,3.72
2022-08-12T14:57:10.111Z,4.40
2022-08-12T14:59:26.419Z,3.60
2022-08-12T15:01:54.518Z,3.45
2022-08-12T15:04:26.239Z,3.03
2022-08-12T15:06:53.313Z,3.40
2022-08-12T15:09:28.796Z,3.88
2022-08-12T15:12:03.584Z,3.55
2022-08-12T15:14:35.339Z,3.20
2022-08-12T15:17:07.162Z,3.42
2022-08-12T15:20:27.845Z,3.55
2022-08-12T15:22:38.180Z,3.78
2022-08-12T15:25:07.503Z,2.80
2022-08-12T15:28:04.031Z,2.95
2022-08-12T15:30:33.842Z,2.90
2022-08-12T15:33:03.193Z,2.95
2022-08-12T15:35:50.184Z,2.72
2022-08-12T15:38:21.187Z,3.17
2022-08-12T15:40:51.344Z,2.40
2022-08-12T15:43:35.457Z,2.83
2022-08-12T15:46:06.539Z,3.20
2022-08-12T15:48:37.308Z,3.10
2022-08-12T15:51:04.638Z,3.13
2022-08-12T15:53:54.673Z,3.25
2022-08-12T15:56:29.474Z,3.47
2022-08-12T15:58:59.158Z,3.78
2022-08-12T16:01:35.365Z,3.60
2022-08-12T16:04:05.113Z,3.10
2022-08-12T16:09:56.561Z,3.35
2022-08-12T16:12:12.636Z,3.55
2022-08-12T16:14:41.834Z,3.13
2022-08-12T16:17:14.943Z,3.28
2022-08-12T16:20:03.541Z,3.60
2022-08-12T16:22:29.384Z,3.30
2022-08-12T16:24:57.412Z,3.08
2022-08-12T16:27:26.101Z,4.40
2022-08-12T16:29:57.418Z,3.90
2022-08-12T16:32:31.223Z,4.57
2022-08-12T16:34:59.807Z,3.85
2022-08-12T16:37:33.088Z,4.40
2022-08-12T16:40:15.190Z,3.58
2022-08-12T16:42:54.380Z,3.63
2022-08-12T16:46:05.114Z,4.38
2022-08-12T16:48:34.614Z,3.80
2022-08-12T16:51:08.202Z,4.40
2022-08-12T16:53:43.404Z,3.70
2022-08-12T16:56:12.582Z,4.32
2022-08-12T16:58:40.215Z,4.38
2022-08-12T17:01:11.974Z,4.50
2022-08-12T17:06:28.058Z,5.07
2022-08-12T17:09:03.699Z,4.82
2022-08-12T17:11:38.854Z,4.90
2022-08-12T17:14:12.590Z,4.75
2022-08-12T17:16:41.482Z,5.00
2022-08-12T17:19:09.802Z,4.72
2022-08-12T17:21:41.400Z,4.63
2022-08-12T17:24:30.069Z,5.22
2022-08-12T17:26:59.859Z,5.50
2022-08-12T17:30:01.399Z,6.10
2022-08-12T17:32:14.670Z,5.40
2022-08-12T17:35:00.664Z,5.20
2022-08-12T17:37:28.287Z,5.68
2022-08-12T17:40:12.383Z,5.30
2022-08-12T17:42:47.526Z,5.90
2022-08-12T17:45:19.749Z,5.07
2022-08-12T17:48:02.121Z,5.88
2022-08-12T17:50:34.414Z,4.82
2022-08-12T17:53:02.747Z,5.90
2022-08-12T17:55:44.415Z,4.90
2022-08-12T17:58:37.013Z,6.32
2022-08-12T18:01:06.149Z,5.80
2022-08-12T18:03:58.095Z,5.82
2022-08-12T18:06:27.920Z,7.00
2022-08-12T18:08:58.792Z,6.18
2022-08-12T18:12:05.926Z,6.32
2022-08-12T18:14:37.280Z,5.85
2022-08-12T18:17:08.736Z,5.88
2022-08-12T18:20:07.041Z,5.78
2022-08-12T18:22:30.789Z,5.35
2022-08-12T18:26:12.729Z,5.18
2022-08-12T18:28:16.917Z,5.22
2022-08-12T18:30:52.776Z,5.85
2022-08-12T18:33:25.530Z,5.88
2022-08-12T18:35:55.743Z,5.80
2022-08-12T18:38:25.551Z,6.40
2022-08-12T18:41:21.743Z,6.38
2022-08-12T18:44:08.022Z,6.03
2022-08-12T18:46:54.069Z,5.45
2022-08-12T18:49:38.888Z,6.00
2022-08-12T18:52:08.696Z,5.28
2022-08-12T18:54:54.089Z,5.85
2022-08-12T18:57:46.062Z,5.55
2022-08-12T19:00:20.955Z,5.32
2022-08-12T19:02:50.972Z,5.93
2022-08-12T19:05:19.028Z,5.70
2022-08-12T19:08:00.745Z,5.30
2022-08-12T19:10:31.238Z,5.35
2022-08-12T19:13:39.498Z,4.90
2022-08-12T19:16:10.908Z,5.22
2022-08-12T19:18:46.152Z,5.00
2022-08-12T19:21:16.596Z,5.40
2022-08-12T19:24:04.489Z,5.20
2022-08-12T19:26:34.976Z,4.65
2022-08-12T19:29:05.752Z,5.75
2022-08-12T19:31:56.328Z,6.47
2022-08-12T19:37:22.635Z,6.32
2022-08-12T19:40:07.920Z,6.60
2022-08-12T19:45:16.478Z,5.60
2022-08-12T19:47:45.000Z,6.72
2022-08-12T19:50:14.165Z,5.65
2022-08-12T19:52:48.046Z,4.82
2022-08-12T19:55:21.350Z,4.72
2022-08-12T19:58:03.357Z,4.35
2022-08-12T20:00:35.023Z,4.15
2022-08-12T20:03:04.516Z,4.53
2022-08-12T20:06:05.804Z,4.97
2022-08-12T20:08:29.375Z,5.38
2022-08-12T20:12:09.402Z,4.25
2022-08-12T20:14:00.720Z,4.55
2022-08-12T20:16:57.765Z,5.10
2022-08-12T20:19:52.894Z,4.75
2022-08-12T20:22:24.048Z,4.63
2022-08-12T20:24:57.438Z,4.82
2022-08-12T20:27:29.268Z,4.20
2022-08-12T20:30:13.712Z,4.40
2022-08-12T20:32:57.813Z,4.38
2022-08-12T20:36:06.900Z,4.65
2022-08-12T20:38:26.975Z,4.88
2022-08-12T20:40:55.798Z,4.40
2022-08-12T20:43:23.954Z,4.07
2022-08-12T20:45:57.327Z,4.63
2022-08-12T20:48:28.826Z,5.03
2022-08-12T20:51:04.411Z,4.03
2022-08-12T20:53:54.264Z,4.30
2022-08-12T20:56:36.505Z,4.50
2022-08-12T20:59:07.394Z,4.38
2022-08-12T21:01:46.651Z,4.57
2022-08-12T21:04:35.946Z,5.13
2022-08-12T21:07:09.187Z,4.90
2022-08-12T21:09:40.900Z,4.82
2022-08-12T21:12:31.611Z,5.10
2022-08-12T21:15:00.776Z,4.88
2022-08-12T21:18:08.056Z,5.18
2022-08-12T21:20:32.680Z,5.65
2022-08-12T21:22:59.506Z,4.40
2022-08-12T21:25:44.117Z,4.95
2022-08-12T21:28:12.828Z,4.88
2022-08-12T21:30:43.499Z,5.45
2022-08-12T21:33:58.515Z,5.32
2022-08-12T21:36:22.654Z,5.13
2022-08-12T21:38:51.129Z,6.03
2022-08-12T21:41:20.320Z,5.45
2022-08-12T21:43:50.504Z,5.93
2022-08-12T21:46:34.912Z,4.50
2022-08-12T21:49:05.306Z,5.63
2022-08-12T21:51:49.767Z,4.90
2022-08-12T21:54:22.648Z,4.68
2022-08-12T21:56:55.853Z,4.95
2022-08-12T21:59:22.737Z,5.80
2022-08-12T22:01:49.923Z,6.25
2022-08-12T22:04:36.423Z,6.10
2022-08-12T22:07:04.552Z,6.28
2022-08-12T22:09:43.355Z,6.20
2022-08-12T22:12:29.492Z,6.55
2022-08-12T22:14:56.468Z,5.80
2022-08-12T22:17:49.664Z,6.25
2022-08-12T22:20:18.106Z,5.63
2022-08-12T22:22:53.901Z,6.47
2022-08-12T22:25:27.826Z,6.38
2022-08-12T22:28:13.267Z,6.05
2022-08-12T22:30:59.580Z,5.75
2022-08-12T22:33:26.350Z,6.35
2022-08-12T22:35:59.348Z,5.63
2022-08-12T22:38:29.370Z,6.43
2022-08-12T22:41:01.354Z,7.20
2022-08-12T22:44:01.182Z,6.03
2022-08-12T22:46:52.696Z,6.45
2022-08-12T22:49:36.527Z,5.97
2022-08-12T22:52:12.108Z,6.47
2022-08-12T22:54:58.026Z,5.85
2022-08-12T22:57:53.872Z,6.05
2022-08-12T23:00:27.420Z,6.10
2022-08-12T23:03:00.460Z,6.50
2022-08-12T23:05:36.976Z,6.30
2022-08-12T23:08:29.888Z,5.80
2022-08-12T23:11:05.872Z,6.20
2022-08-12T23:13:55.278Z,5.93
2022-08-12T23:16:31.109Z,5.68
2022-08-12T23:19:10.851Z,5.93
2022-08-12T23:22:06.456Z,5.88
2022-08-12T23:24:54.024Z,6.10
2022-08-12T23:27:50.616Z,9.35
2022-08-12T23:30:31.664Z,17.42
2022-08-12T23:33:19.897Z,24.70
2022-08-12T23:35:59.313Z,21.42
2022-08-12T23:38:32.442Z,24.27
2022-08-12T23:41:02.122Z,20.55
2022-08-12T23:43:39.095Z,21.50
2022-08-12T23:46:10.256Z,16.83
2022-08-12T23:48:38.184Z,11.55
2022-08-12T23:51:23.333Z,10.23
2022-08-12T23:54:03.017Z,9.55
2022-08-12T23:56:33.808Z,9.02
2022-08-12T23:59:02.989Z,8.07
